sensor_id;sensor_type;location;lat;lon;timestamp;pressure;altitude;pressure_sealevel;temperature;humidity
76046;BME280;64741;41.730;44.788;2023-03-14T00:04:06;991.6;;;23.9;45.2
76046;BME280;64741;41.730;44.788;2023-03-14T00:09:08;991.7;;;23.9;45.2
76046;BME280;64741;41.730;44.788;2023-03-14T00:14:08;991.8;;;23.9;45.1
76046;BME280;64741;41.730;44.788;2023-03-14T00:19:06;991.7;;;23.9;45.1
76046;BME280;64741;41.730;44.788;2023-03-14T00:24:07;991.7;;;23.9;45.2
76046;BME280;64741;41.730;44.788;2023-03-14T00:29:04;991.8;;;23.8;45.1
76046;BME280;64741;41.730;44.788;2023-03-14T00:34:04;991.8;;;23.8;45.4
76046;BME280;64741;41.730;44.788;2023-03-14T00:39:06;991.8;;;23.8;45.4
76046;BME280;64741;41.730;44.788;2023-03-14T00:44:04;991.8;;;23.8;45.3
76046;BME280;64741;41.730;44.788;2023-03-14T00:49:12;991.9;;;23.8;45.3
76046;BME280;64741;41.730;44.788;2023-03-14T00:54:06;992;;;23.8;45.3
76046;BME280;64741;41.730;44.788;2023-03-14T00:59:04;992;;;23.8;45.4
76046;BME280;64741;41.730;44.788;2023-03-14T01:04:07;992.1;;;23.8;45.4
76046;BME280;64741;41.730;44.788;2023-03-14T01:09:06;992.1;;;23.8;45.5
76046;BME280;64741;41.730;44.788;2023-03-14T01:14:06;992.3;;;23.8;45.4
76046;BME280;64741;41.730;44.788;2023-03-14T01:19:07;992.5;;;23.8;45.5
76046;BME280;64741;41.730;44.788;2023-03-14T01:23:42;992.5;;;23.8;45.4
76046;BME280;64741;41.730;44.788;2023-03-14T01:29:06;992.5;;;23.8;45.4
76046;BME280;64741;41.730;44.788;2023-03-14T01:34:14;992.4;;;23.8;45.4
76046;BME280;64741;41.730;44.788;2023-03-14T01:39:06;992.4;;;23.8;45.5
76046;BME280;64741;41.730;44.788;2023-03-14T01:44:08;992.5;;;23.8;45.4
76046;BME280;64741;41.730;44.788;2023-03-14T01:49:08;992.6;;;23.8;45.3
76046;BME280;64741;41.730;44.788;2023-03-14T01:54:08;992.6;;;23.8;45.4
76046;BME280;64741;41.730;44.788;2023-03-14T01:59:07;992.8;;;23.8;45.4
76046;BME280;64741;41.730;44.788;2023-03-14T02:04:06;992.8;;;23.8;45.5
76046;BME280;64741;41.730;44.788;2023-03-14T02:09:15;992.8;;;23.8;45.5
76046;BME280;64741;41.730;44.788;2023-03-14T02:14:17;992.8;;;23.8;45.5
76046;BME280;64741;41.730;44.788;2023-03-14T02:19:06;992.8;;;23.8;45.5
76046;BME280;64741;41.730;44.788;2023-03-14T02:24:15;992.9;;;23.8;45.5
76046;BME280;64741;41.730;44.788;2023-03-14T02:29:07;992.9;;;23.8;45.5
76046;BME280;64741;41.730;44.788;2023-03-14T02:34:06;992.9;;;23.8;45.5
76046;BME280;64741;41.730;44.788;2023-03-14T02:39:08;992.9;;;23.8;45.5
76046;BME280;64741;41.730;44.788;2023-03-14T02:44:14;992.9;;;23.8;45.5
76046;BME280;64741;41.730;44.788;2023-03-14T02:49:07;993;;;23.8;45.5
76046;BME280;64741;41.730;44.788;2023-03-14T02:54:07;993.1;;;23.8;45.6
76046;BME280;64741;41.730;44.788;2023-03-14T02:58:57;993.2;;;23.8;45.5
76046;BME280;64741;41.730;44.788;2023-03-14T03:04:06;993.2;;;23.8;45.5
76046;BME280;64741;41.730;44.788;2023-03-14T03:09:06;993.2;;;23.8;45.4
76046;BME280;64741;41.730;44.788;2023-03-14T03:14:06;993.3;;;23.8;45.3
76046;BME280;64741;41.730;44.788;2023-03-14T03:19:06;993.4;;;23.8;45.3
76046;BME280;64741;41.730;44.788;2023-03-14T03:24:06;993.4;;;23.8;45.4
76046;BME280;64741;41.730;44.788;2023-03-14T03:29:07;993.4;;;23.8;45.3
76046;BME280;64741;41.730;44.788;2023-03-14T03:34:07;993.6;;;23.8;45.4
76046;BME280;64741;41.730;44.788;2023-03-14T03:39:07;993.7;;;23.8;45.4
76046;BME280;64741;41.730;44.788;2023-03-14T03:44:14;993.9;;;23.8;45.4
76046;BME280;64741;41.730;44.788;2023-03-14T03:49:06;993.9;;;23.8;45.4
76046;BME280;64741;41.730;44.788;2023-03-14T03:54:07;993.9;;;23.8;45.4
76046;BME280;64741;41.730;44.788;2023-03-14T03:59:07;993.9;;;23.8;45.5
76046;BME280;64741;41.730;44.788;2023-03-14T04:04:13;994;;;23.8;45.4
76046;BME280;64741;41.730;44.788;2023-03-14T04:09:07;994;;;23.8;45.4
76046;BME280;64741;41.730;44.788;2023-03-14T04:14:07;994.1;;;23.8;45.5
76046;BME280;64741;41.730;44.788;2023-03-14T04:19:15;994.2;;;23.8;45.6
76046;BME280;64741;41.730;44.788;2023-03-14T04:24:08;994.3;;;23.8;45.6
76046;BME280;64741;41.730;44.788;2023-03-14T04:29:07;994.3;;;23.8;45.6
76046;BME280;64741;41.730;44.788;2023-03-14T04:34:07;994.4;;;23.8;45.7
76046;BME280;64741;41.730;44.788;2023-03-14T04:39:15;994.5;;;23.8;45.7
76046;BME280;64741;41.730;44.788;2023-03-14T04:43:45;994.5;;;23.7;45.7
76046;BME280;64741;41.730;44.788;2023-03-14T04:49:07;994.5;;;23.7;45.7
76046;BME280;64741;41.730;44.788;2023-03-14T04:54:07;994.5;;;23.7;45.5
76046;BME280;64741;41.730;44.788;2023-03-14T04:59:05;994.6;;;23.7;45.6
76046;BME280;64741;41.730;44.788;2023-03-14T05:04:05;994.7;;;23.7;45.6
76046;BME280;64741;41.730;44.788;2023-03-14T05:09:05;994.9;;;23.7;45.5
76046;BME280;64741;41.730;44.788;2023-03-14T05:14:15;994.9;;;23.7;45.5
76046;BME280;64741;41.730;44.788;2023-03-14T05:19:15;994.9;;;23.7;45.5
76046;BME280;64741;41.730;44.788;2023-03-14T05:24:07;995.1;;;23.7;45.4
76046;BME280;64741;41.730;44.788;2023-03-14T05:29:15;995.1;;;23.7;45.4
76046;BME280;64741;41.730;44.788;2023-03-14T05:34:05;995.2;;;23.7;45.4
76046;BME280;64741;41.730;44.788;2023-03-14T05:39:05;995.3;;;23.7;45.4
76046;BME280;64741;41.730;44.788;2023-03-14T05:44:05;995.4;;;23.7;45.4
76046;BME280;64741;41.730;44.788;2023-03-14T05:49:15;995.5;;;23.7;45.5
76046;BME280;64741;41.730;44.788;2023-03-14T05:54:05;995.5;;;23.8;45.5
76046;BME280;64741;41.730;44.788;2023-03-14T05:59:07;995.5;;;23.7;45.5
76046;BME280;64741;41.730;44.788;2023-03-14T06:04:13;995.6;;;23.7;45.5
76046;BME280;64741;41.730;44.788;2023-03-14T06:09:07;995.6;;;23.7;45.4
76046;BME280;64741;41.730;44.788;2023-03-14T06:14:07;995.6;;;23.7;45.4
76046;BME280;64741;41.730;44.788;2023-03-14T06:19:07;995.6;;;23.8;45.4
76046;BME280;64741;41.730;44.788;2023-03-14T06:24:07;995.7;;;23.8;45.4
76046;BME280;64741;41.730;44.788;2023-03-14T06:29:07;995.7;;;23.8;45.3
76046;BME280;64741;41.730;44.788;2023-03-14T06:34:07;995.7;;;23.8;45.4
76046;BME280;64741;41.730;44.788;2023-03-14T06:39:05;995.7;;;23.8;45.5
76046;BME280;64741;41.730;44.788;2023-03-14T06:44:07;995.7;;;23.8;45.4
76046;BME280;64741;41.730;44.788;2023-03-14T06:49:15;995.8;;;23.8;45.5
76046;BME280;64741;41.730;44.788;2023-03-14T06:54:07;995.8;;;23.8;45.5
76046;BME280;64741;41.730;44.788;2023-03-14T06:59:05;995.9;;;23.8;45.4
76046;BME280;64741;41.730;44.788;2023-03-14T07:04:03;995.9;;;23.8;45.5
76046;BME280;64741;41.730;44.788;2023-03-14T07:09:15;995.9;;;23.8;45.5
76046;BME280;64741;41.730;44.788;2023-03-14T07:14:07;996;;;23.8;45.5
76046;BME280;64741;41.730;44.788;2023-03-14T07:19:07;996;;;23.8;45.5
76046;BME280;64741;41.730;44.788;2023-03-14T07:24:15;996;;;23.8;45.5
76046;BME280;64741;41.730;44.788;2023-03-14T07:29:07;996;;;23.8;45.4
76046;BME280;64741;41.730;44.788;2023-03-14T07:34:07;996;;;23.8;45.5
76046;BME280;64741;41.730;44.788;2023-03-14T07:39:07;996;;;23.8;45.6
76046;BME280;64741;41.730;44.788;2023-03-14T07:44:01;996;;;23.8;45.7
76046;BME280;64741;41.730;44.788;2023-03-14T07:49:07;995.9;;;23.8;45.8
76046;BME280;64741;41.730;44.788;2023-03-14T07:54:13;996;;;23.8;45.9
76046;BME280;64741;41.730;44.788;2023-03-14T07:59:13;996.1;;;23.8;46.4
76046;BME280;64741;41.730;44.788;2023-03-14T08:04:07;996;;;23.9;47.1
76046;BME280;64741;41.730;44.788;2023-03-14T08:09:05;995.9;;;23.9;46.9
76046;BME280;64741;41.730;44.788;2023-03-14T08:14:07;996;;;23.9;46.9
76046;BME280;64741;41.730;44.788;2023-03-14T08:19:15;996;;;24;46.7
76046;BME280;64741;41.730;44.788;2023-03-14T08:24:13;996;;;24;46.4
76046;BME280;64741;41.730;44.788;2023-03-14T08:29:05;996;;;24;46.3
76046;BME280;64741;41.730;44.788;2023-03-14T08:34:11;995.9;;;24;46
76046;BME280;64741;41.730;44.788;2023-03-14T08:39:03;995.9;;;23.9;46.1
76046;BME280;64741;41.730;44.788;2023-03-14T08:44:03;995.8;;;24;46
76046;BME280;64741;41.730;44.788;2023-03-14T08:49:03;995.8;;;24;46
76046;BME280;64741;41.730;44.788;2023-03-14T08:54:13;995.8;;;24;46
76046;BME280;64741;41.730;44.788;2023-03-14T08:59:07;995.8;;;24;46
76046;BME280;64741;41.730;44.788;2023-03-14T09:04:07;995.8;;;24;45.7
76046;BME280;64741;41.730;44.788;2023-03-14T09:09:15;995.9;;;24;45.4
76046;BME280;64741;41.730;44.788;2023-03-14T09:14:07;995.9;;;23.9;45.2
76046;BME280;64741;41.730;44.788;2023-03-14T09:19:07;995.9;;;23.9;44.9
76046;BME280;64741;41.730;44.788;2023-03-14T09:24:07;996;;;23.9;44.8
76046;BME280;64741;41.730;44.788;2023-03-14T09:29:07;995.9;;;23.9;44.4
76046;BME280;64741;41.730;44.788;2023-03-14T09:34:07;995.8;;;23.9;44.2
76046;BME280;64741;41.730;44.788;2023-03-14T09:38:55;995.7;;;23.9;44.1
76046;BME280;64741;41.730;44.788;2023-03-14T09:44:08;995.7;;;23.9;43.9
76046;BME280;64741;41.730;44.788;2023-03-14T09:49:09;995.6;;;23.9;43.7
76046;BME280;64741;41.730;44.788;2023-03-14T09:54:18;995.6;;;23.9;43.4
76046;BME280;64741;41.730;44.788;2023-03-14T09:58:50;995.7;;;23.9;43.4
76046;BME280;64741;41.730;44.788;2023-03-14T10:04:10;995.6;;;23.9;43.3
76046;BME280;64741;41.730;44.788;2023-03-14T10:08:27;995.5;;;23.9;43.3
76046;BME280;64741;41.730;44.788;2023-03-14T10:14:15;995.4;;;23.9;43.4
76046;BME280;64741;41.730;44.788;2023-03-14T10:19:09;995.5;;;23.9;43.5
76046;BME280;64741;41.730;44.788;2023-03-14T10:24:07;995.4;;;23.9;43.5
76046;BME280;64741;41.730;44.788;2023-03-14T10:29:15;995.3;;;23.9;43.4
76046;BME280;64741;41.730;44.788;2023-03-14T10:34:12;995.2;;;23.9;43.4
76046;BME280;64741;41.730;44.788;2023-03-14T10:39:21;995.2;;;23.9;43.5
76046;BME280;64741;41.730;44.788;2023-03-14T10:44:07;995.1;;;23.9;43.5
76046;BME280;64741;41.730;44.788;2023-03-14T10:49:22;995.1;;;23.9;43.8
76046;BME280;64741;41.730;44.788;2023-03-14T10:54:12;995.1;;;24;44
76046;BME280;64741;41.730;44.788;2023-03-14T10:59:15;995;;;24;44.5
76046;BME280;64741;41.730;44.788;2023-03-14T11:04:19;994.9;;;24;45
76046;BME280;64741;41.730;44.788;2023-03-14T11:09:10;994.9;;;24;45.7
76046;BME280;64741;41.730;44.788;2023-03-14T11:14:08;995;;;24;46.2
76046;BME280;64741;41.730;44.788;2023-03-14T11:19:26;995;;;24.1;46.5
76046;BME280;64741;41.730;44.788;2023-03-14T11:24:13;995;;;24;46.7
76046;BME280;64741;41.730;44.788;2023-03-14T11:29:08;995;;;24.1;47.2
76046;BME280;64741;41.730;44.788;2023-03-14T11:34:06;995;;;24.1;47.3
76046;BME280;64741;41.730;44.788;2023-03-14T11:38:40;995;;;24.1;47.5
76046;BME280;64741;41.730;44.788;2023-03-14T11:44:09;995;;;24.1;47.7
76046;BME280;64741;41.730;44.788;2023-03-14T11:49:10;995;;;24.1;48
76046;BME280;64741;41.730;44.788;2023-03-14T11:53:50;995;;;24.1;48.3
76046;BME280;64741;41.730;44.788;2023-03-14T11:59:16;995;;;24.1;48.4
76046;BME280;64741;41.730;44.788;2023-03-14T12:04:09;995;;;24.1;48.6
76046;BME280;64741;41.730;44.788;2023-03-14T12:09:07;995;;;24.1;49
76046;BME280;64741;41.730;44.788;2023-03-14T12:14:17;994.9;;;24.1;49.2
76046;BME280;64741;41.730;44.788;2023-03-14T12:19:21;994.9;;;24.1;49.8
76046;BME280;64741;41.730;44.788;2023-03-14T12:24:14;994.9;;;24.2;51.1
76046;BME280;64741;41.730;44.788;2023-03-14T12:29:11;994.9;;;24.2;51.8
76046;BME280;64741;41.730;44.788;2023-03-14T12:34:24;994.9;;;24.2;51.7
76046;BME280;64741;41.730;44.788;2023-03-14T12:39:10;994.9;;;24.2;51.3
76046;BME280;64741;41.730;44.788;2023-03-14T12:44:39;994.9;;;24.2;50.8
76046;BME280;64741;41.730;44.788;2023-03-14T12:49:03;994.9;;;24.2;50.7
76046;BME280;64741;41.730;44.788;2023-03-14T12:53:50;994.9;;;24.2;50.9
76046;BME280;64741;41.730;44.788;2023-03-14T12:59:19;994.9;;;24.2;51
76046;BME280;64741;41.730;44.788;2023-03-14T13:04:03;994.8;;;24.2;51.4
76046;BME280;64741;41.730;44.788;2023-03-14T13:14:08;994.8;;;24.2;52
76046;BME280;64741;41.730;44.788;2023-03-14T13:19:14;994.8;;;24.3;52.3
76046;BME280;64741;41.730;44.788;2023-03-14T13:24:17;994.8;;;24.3;52.6
76046;BME280;64741;41.730;44.788;2023-03-14T13:29:08;994.7;;;24.3;53
76046;BME280;64741;41.730;44.788;2023-03-14T13:34:13;994.7;;;24.4;53.1
76046;BME280;64741;41.730;44.788;2023-03-14T13:39:09;994.7;;;24.4;53.3
76046;BME280;64741;41.730;44.788;2023-03-14T13:44:08;994.8;;;24.4;53.1
76046;BME280;64741;41.730;44.788;2023-03-14T13:49:09;994.8;;;24.4;52.8
76046;BME280;64741;41.730;44.788;2023-03-14T13:53:49;994.8;;;24.4;52.5
76046;BME280;64741;41.730;44.788;2023-03-14T13:59:20;994.7;;;24.4;52.4
76046;BME280;64741;41.730;44.788;2023-03-14T14:04:14;994.6;;;24.4;52.2
76046;BME280;64741;41.730;44.788;2023-03-14T14:09:16;994.7;;;24.4;52
76046;BME280;64741;41.730;44.788;2023-03-14T14:14:09;994.7;;;24.4;51.9
76046;BME280;64741;41.730;44.788;2023-03-14T14:19:09;994.8;;;24.4;51.8
76046;BME280;64741;41.730;44.788;2023-03-14T14:24:07;994.9;;;24.4;51.6
76046;BME280;64741;41.730;44.788;2023-03-14T14:29:20;995;;;24.4;51.5
76046;BME280;64741;41.730;44.788;2023-03-14T14:34:17;995.1;;;24.4;51.5
76046;BME280;64741;41.730;44.788;2023-03-14T14:39:10;995.1;;;24.4;51.3
76046;BME280;64741;41.730;44.788;2023-03-14T14:44:16;995.1;;;24.4;51.2
76046;BME280;64741;41.730;44.788;2023-03-14T14:49:10;995.2;;;24.4;51.1
76046;BME280;64741;41.730;44.788;2023-03-14T14:54:11;995.2;;;24.4;51
76046;BME280;64741;41.730;44.788;2023-03-14T14:59:06;995.3;;;24.4;50.9
76046;BME280;64741;41.730;44.788;2023-03-14T15:04:15;995.3;;;24.4;50.8
76046;BME280;64741;41.730;44.788;2023-03-14T15:09:10;995.4;;;24.4;50.7
76046;BME280;64741;41.730;44.788;2023-03-14T15:14:07;995.4;;;24.4;50.5
76046;BME280;64741;41.730;44.788;2023-03-14T15:19:10;995.5;;;24.4;50.3
76046;BME280;64741;41.730;44.788;2023-03-14T15:24:09;995.5;;;24.4;50.2
76046;BME280;64741;41.730;44.788;2023-03-14T15:29:09;995.5;;;24.4;50.1
76046;BME280;64741;41.730;44.788;2023-03-14T15:34:07;995.6;;;24.4;50
76046;BME280;64741;41.730;44.788;2023-03-14T15:39:07;995.6;;;24.4;49.9
76046;BME280;64741;41.730;44.788;2023-03-14T15:44:09;995.7;;;24.4;49.7
76046;BME280;64741;41.730;44.788;2023-03-14T15:49:17;995.8;;;24.4;49.7
76046;BME280;64741;41.730;44.788;2023-03-14T15:54:09;995.9;;;24.4;49.6
76046;BME280;64741;41.730;44.788;2023-03-14T15:59:09;996;;;24.4;49.6
76046;BME280;64741;41.730;44.788;2023-03-14T16:04:09;996.1;;;24.4;49.5
76046;BME280;64741;41.730;44.788;2023-03-14T16:09:07;996.1;;;24.4;49.3
76046;BME280;64741;41.730;44.788;2023-03-14T16:14:09;996.2;;;24.3;49.2
76046;BME280;64741;41.730;44.788;2023-03-14T16:19:01;996.2;;;24.3;49.1
76046;BME280;64741;41.730;44.788;2023-03-14T16:24:17;996.3;;;24.3;49
76046;BME280;64741;41.730;44.788;2023-03-14T16:29:17;996.3;;;24.3;48.9
76046;BME280;64741;41.730;44.788;2023-03-14T16:34:05;996.3;;;24.3;48.8
76046;BME280;64741;41.730;44.788;2023-03-14T16:39:17;996.3;;;24.3;48.7
76046;BME280;64741;41.730;44.788;2023-03-14T16:44:09;996.4;;;24.3;48.6
76046;BME280;64741;41.730;44.788;2023-03-14T16:49:11;996.4;;;24.2;48.5
76046;BME280;64741;41.730;44.788;2023-03-14T16:54:09;996.4;;;24.2;48.4
76046;BME280;64741;41.730;44.788;2023-03-14T16:59:17;996.4;;;24.2;48.4
76046;BME280;64741;41.730;44.788;2023-03-14T17:04:09;996.5;;;24.2;48.3
76046;BME280;64741;41.730;44.788;2023-03-14T17:09:17;996.6;;;24.2;48.1
76046;BME280;64741;41.730;44.788;2023-03-14T17:14:17;996.7;;;24.2;48.1
76046;BME280;64741;41.730;44.788;2023-03-14T17:19:11;996.7;;;24.2;48
76046;BME280;64741;41.730;44.788;2023-03-14T17:24:11;996.8;;;24.1;48
76046;BME280;64741;41.730;44.788;2023-03-14T17:29:09;996.8;;;24.1;47.9
76046;BME280;64741;41.730;44.788;2023-03-14T17:34:11;996.8;;;24.1;47.8
76046;BME280;64741;41.730;44.788;2023-03-14T17:39:11;996.9;;;24.1;47.7
76046;BME280;64741;41.730;44.788;2023-03-14T17:44:09;996.9;;;24.1;47.7
76046;BME280;64741;41.730;44.788;2023-03-14T17:49:17;996.9;;;24.1;47.6
76046;BME280;64741;41.730;44.788;2023-03-14T17:54:11;996.9;;;24.1;47.6
76046;BME280;64741;41.730;44.788;2023-03-14T17:59:11;997;;;24.1;47.5
76046;BME280;64741;41.730;44.788;2023-03-14T18:04:07;997;;;24.1;47.5
76046;BME280;64741;41.730;44.788;2023-03-14T18:09:15;997.1;;;24.1;47.4
76046;BME280;64741;41.730;44.788;2023-03-14T18:14:11;997.1;;;24.1;47.4
76046;BME280;64741;41.730;44.788;2023-03-14T18:19:09;997.1;;;24.1;47.4
76046;BME280;64741;41.730;44.788;2023-03-14T18:24:07;997.2;;;24;47.3
76046;BME280;64741;41.730;44.788;2023-03-14T18:29:09;997.2;;;24;47.2
76046;BME280;64741;41.730;44.788;2023-03-14T18:33:45;997.3;;;24;47.2
76046;BME280;64741;41.730;44.788;2023-03-14T18:39:07;997.3;;;24;47.2
76046;BME280;64741;41.730;44.788;2023-03-14T18:44:09;997.4;;;24;47.1
76046;BME280;64741;41.730;44.788;2023-03-14T18:49:09;997.4;;;24;47.1
76046;BME280;64741;41.730;44.788;2023-03-14T18:54:15;997.4;;;24;47
76046;BME280;64741;41.730;44.788;2023-03-14T18:59:09;997.4;;;24;47.2
76046;BME280;64741;41.730;44.788;2023-03-14T19:04:09;997.4;;;24;47.1
76046;BME280;64741;41.730;44.788;2023-03-14T19:09:09;997.4;;;24;47.2
76046;BME280;64741;41.730;44.788;2023-03-14T19:14:07;997.4;;;24;47.1
76046;BME280;64741;41.730;44.788;2023-03-14T19:19:09;997.3;;;24;47
76046;BME280;64741;41.730;44.788;2023-03-14T19:24:07;997.3;;;24;47.1
76046;BME280;64741;41.730;44.788;2023-03-14T19:29:15;997.2;;;24;47.1
76046;BME280;64741;41.730;44.788;2023-03-14T19:34:15;997.3;;;24;47.1
76046;BME280;64741;41.730;44.788;2023-03-14T19:39:09;997.2;;;24.1;47.1
76046;BME280;64741;41.730;44.788;2023-03-14T19:44:13;997.2;;;24.1;47.1
76046;BME280;64741;41.730;44.788;2023-03-14T19:49:09;997.3;;;24.1;47.2
76046;BME280;64741;41.730;44.788;2023-03-14T19:54:09;997.3;;;24.1;47.2
76046;BME280;64741;41.730;44.788;2023-03-14T19:59:07;997.3;;;24.1;47.2
76046;BME280;64741;41.730;44.788;2023-03-14T20:04:15;997.3;;;24.1;47.2
76046;BME280;64741;41.730;44.788;2023-03-14T20:09:07;997.3;;;24.1;47.1
76046;BME280;64741;41.730;44.788;2023-03-14T20:14:05;997.3;;;24.1;47.1
76046;BME280;64741;41.730;44.788;2023-03-14T20:19:15;997.3;;;24.1;47.1
76046;BME280;64741;41.730;44.788;2023-03-14T20:24:09;997.3;;;24.1;47
76046;BME280;64741;41.730;44.788;2023-03-14T20:29:09;997.4;;;24.1;47
76046;BME280;64741;41.730;44.788;2023-03-14T20:34:09;997.3;;;24.1;46.9
76046;BME280;64741;41.730;44.788;2023-03-14T20:39:09;997.3;;;24.1;46.9
76046;BME280;64741;41.730;44.788;2023-03-14T20:44:09;997.3;;;24.1;46.9
76046;BME280;64741;41.730;44.788;2023-03-14T20:49:07;997.2;;;24.1;46.9
76046;BME280;64741;41.730;44.788;2023-03-14T20:54:15;997.2;;;24.1;46.9
76046;BME280;64741;41.730;44.788;2023-03-14T20:59:09;997.2;;;24.1;46.9
76046;BME280;64741;41.730;44.788;2023-03-14T21:04:07;997.2;;;24.1;46.8
76046;BME280;64741;41.730;44.788;2023-03-14T21:09:07;997.1;;;24.1;46.7
76046;BME280;64741;41.730;44.788;2023-03-14T21:14:15;997.1;;;24.1;46.6
76046;BME280;64741;41.730;44.788;2023-03-14T21:19:09;997;;;24.1;46.6
76046;BME280;64741;41.730;44.788;2023-03-14T21:24:05;997;;;24.1;46.6
76046;BME280;64741;41.730;44.788;2023-03-14T21:28:53;997;;;24.1;46.5
76046;BME280;64741;41.730;44.788;2023-03-14T21:33:45;997;;;24.1;46.6
76046;BME280;64741;41.730;44.788;2023-03-14T21:39:09;997;;;24.1;46.5
76046;BME280;64741;41.730;44.788;2023-03-14T21:44:07;997;;;24.1;46.5
76046;BME280;64741;41.730;44.788;2023-03-14T21:49:09;997;;;24.1;46.5
76046;BME280;64741;41.730;44.788;2023-03-14T21:54:09;997;;;24.1;46.5
76046;BME280;64741;41.730;44.788;2023-03-14T21:59:15;997;;;24.1;46.4
76046;BME280;64741;41.730;44.788;2023-03-14T22:04:09;997;;;24.1;46.2
76046;BME280;64741;41.730;44.788;2023-03-14T22:09:09;997;;;24.1;46.3
76046;BME280;64741;41.730;44.788;2023-03-14T22:14:09;997;;;24.2;46.3
76046;BME280;64741;41.730;44.788;2023-03-14T22:19:07;997;;;24.2;46.4
76046;BME280;64741;41.730;44.788;2023-03-14T22:24:09;997.1;;;24.2;46.4
76046;BME280;64741;41.730;44.788;2023-03-14T22:29:07;997.1;;;24.2;46.4
76046;BME280;64741;41.730;44.788;2023-03-14T22:34:15;997.1;;;24.2;46.6
76046;BME280;64741;41.730;44.788;2023-03-14T22:39:15;997.1;;;24.2;46.7
76046;BME280;64741;41.730;44.788;2023-03-14T22:44:09;997.1;;;24.3;46.6
76046;BME280;64741;41.730;44.788;2023-03-14T22:49:01;997;;;24.2;46.6
76046;BME280;64741;41.730;44.788;2023-03-14T22:54:09;997;;;24.2;46.6
76046;BME280;64741;41.730;44.788;2023-03-14T22:59:09;997;;;24.2;46.6
76046;BME280;64741;41.730;44.788;2023-03-14T23:04:05;997;;;24.2;46.6
76046;BME280;64741;41.730;44.788;2023-03-14T23:09:15;997;;;24.2;46.6
76046;BME280;64741;41.730;44.788;2023-03-14T23:14:07;997;;;24.2;46.5
76046;BME280;64741;41.730;44.788;2023-03-14T23:18:27;996.9;;;24.2;46.3
76046;BME280;64741;41.730;44.788;2023-03-14T23:24:15;996.9;;;24.2;46.3
76046;BME280;64741;41.730;44.788;2023-03-14T23:29:09;996.8;;;24.2;46.3
76046;BME280;64741;41.730;44.788;2023-03-14T23:34:09;996.8;;;24.2;46.2
76046;BME280;64741;41.730;44.788;2023-03-14T23:39:09;996.8;;;24.2;46.3
76046;BME280;64741;41.730;44.788;2023-03-14T23:44:09;996.7;;;24.2;46.3
76046;BME280;64741;41.730;44.788;2023-03-14T23:49:09;996.7;;;24.2;46.2
76046;BME280;64741;41.730;44.788;2023-03-14T23:54:07;996.7;;;24.2;46.3
76046;BME280;64741;41.730;44.788;2023-03-14T23:59:07;996.6;;;24.1;46.4
